createdAt,value
2023-03-16T00:00:01.623Z,1.60
2023-03-16T00:02:28.559Z,1.60
2023-03-16T00:04:55.601Z,1.60
2023-03-16T00:07:22.555Z,1.60
2023-03-16T00:09:49.487Z,1.60
2023-03-16T00:12:19.596Z,1.40
2023-03-16T00:14:48.425Z,1.40
2023-03-16T00:17:20.562Z,1.40
2023-03-16T00:19:49.428Z,1.40
2023-03-16T00:22:16.696Z,1.40
2023-03-16T00:24:43.917Z,1.40
2023-03-16T00:27:15.981Z,1.50
2023-03-16T00:29:47.366Z,1.50
2023-03-16T00:32:18.188Z,1.60
2023-03-16T00:34:46.107Z,1.60
2023-03-16T00:37:15.685Z,1.60
2023-03-16T00:39:44.495Z,1.60
2023-03-16T00:42:12.912Z,1.50
2023-03-16T00:44:41.833Z,1.50
2023-03-16T00:47:09.832Z,1.50
2023-03-16T00:49:37.154Z,1.50
2023-03-16T00:52:07.038Z,1.50
2023-03-16T00:54:33.916Z,1.50
2023-03-16T00:57:02.205Z,1.50
2023-03-16T00:59:30.477Z,1.60
2023-03-16T01:01:57.392Z,1.50
2023-03-16T01:04:24.283Z,1.50
2023-03-16T01:06:51.833Z,1.50
2023-03-16T01:09:18.653Z,1.60
2023-03-16T01:11:49.505Z,1.60
2023-03-16T01:14:16.451Z,1.60
2023-03-16T01:16:46.079Z,1.60
2023-03-16T01:19:13.995Z,1.60
2023-03-16T01:21:42.508Z,1.50
2023-03-16T01:24:10.357Z,1.40
2023-03-16T01:26:37.385Z,1.40
2023-03-16T01:29:04.331Z,1.30
2023-03-16T01:31:32.170Z,1.10
2023-03-16T01:33:59.343Z,1.10
2023-03-16T01:36:26.273Z,1.00
2023-03-16T01:38:53.222Z,0.90
2023-03-16T01:41:20.176Z,0.80
2023-03-16T01:43:47.459Z,0.80
2023-03-16T01:46:22.594Z,0.80
2023-03-16T01:49:16.720Z,0.90
2023-03-16T01:52:03.563Z,0.90
2023-03-16T01:54:35.200Z,0.90
2023-03-16T01:57:15.609Z,1.00
2023-03-16T02:00:19.830Z,0.90
2023-03-16T02:02:55.167Z,1.00
2023-03-16T02:05:39.001Z,1.00
2023-03-16T02:08:06.683Z,1.00
2023-03-16T02:10:35.008Z,1.00
2023-03-16T02:13:02.047Z,1.00
2023-03-16T02:15:29.374Z,1.00
2023-03-16T02:18:00.397Z,1.00
2023-03-16T02:20:57.389Z,1.00
2023-03-16T02:23:25.948Z,0.90
2023-03-16T02:26:06.299Z,0.90
2023-03-16T02:29:32.163Z,0.90
2023-03-16T02:32:00.232Z,1.10
2023-03-16T02:34:28.012Z,1.20
2023-03-16T02:36:56.333Z,1.30
2023-03-16T02:39:23.699Z,1.30
2023-03-16T02:41:51.038Z,1.40
2023-03-16T02:44:27.817Z,1.50
2023-03-16T02:47:02.672Z,1.60
2023-03-16T02:49:38.690Z,1.70
2023-03-16T02:52:06.696Z,1.90
2023-03-16T02:54:33.992Z,2.00
2023-03-16T02:57:00.892Z,2.10
2023-03-16T02:59:27.797Z,2.20
2023-03-16T03:01:54.862Z,2.20
2023-03-16T03:04:23.500Z,2.20
2023-03-16T03:06:51.512Z,2.30
2023-03-16T03:09:19.503Z,2.30
2023-03-16T03:11:46.936Z,2.30
2023-03-16T03:14:16.865Z,2.30
2023-03-16T03:16:46.893Z,2.30
2023-03-16T03:19:14.197Z,2.30
2023-03-16T03:21:41.733Z,2.30
2023-03-16T03:24:09.620Z,2.40
2023-03-16T03:26:40.240Z,2.40
2023-03-16T03:29:07.145Z,2.40
2023-03-16T03:31:35.236Z,2.40
2023-03-16T03:34:06.667Z,2.50
2023-03-16T03:36:35.094Z,2.50
2023-03-16T03:39:05.246Z,2.60
2023-03-16T03:41:33.444Z,2.70
2023-03-16T03:44:00.949Z,2.80
2023-03-16T03:46:28.060Z,2.80
2023-03-16T03:48:55.104Z,2.90
2023-03-16T03:51:21.965Z,2.90
2023-03-16T03:53:48.883Z,3.00
2023-03-16T03:56:15.800Z,3.00
2023-03-16T03:58:42.682Z,3.00
2023-03-16T04:01:09.530Z,3.10
2023-03-16T04:03:36.529Z,3.20
2023-03-16T04:06:03.501Z,3.30
2023-03-16T04:08:30.371Z,3.30
2023-03-16T04:10:57.257Z,3.40
2023-03-16T04:13:24.143Z,3.40
2023-03-16T04:16:00.033Z,3.40
2023-03-16T04:18:26.877Z,3.40
2023-03-16T04:20:53.781Z,3.40
2023-03-16T04:23:21.807Z,3.40
2023-03-16T04:25:48.729Z,3.40
2023-03-16T04:28:18.116Z,3.40
2023-03-16T04:30:45.233Z,3.50
2023-03-16T04:33:12.197Z,3.50
2023-03-16T04:35:39.143Z,3.50
2023-03-16T04:38:06.259Z,3.50
2023-03-16T04:40:33.133Z,3.50
2023-03-16T04:43:00.009Z,3.50
2023-03-16T04:45:26.919Z,3.50
2023-03-16T04:47:53.756Z,3.60
2023-03-16T04:50:20.828Z,3.60
2023-03-16T04:52:47.788Z,3.50
2023-03-16T04:55:14.663Z,3.50
2023-03-16T04:57:41.490Z,3.60
2023-03-16T05:00:11.731Z,3.60
2023-03-16T05:02:38.726Z,3.60
2023-03-16T05:05:06.934Z,3.60
2023-03-16T05:07:34.730Z,3.60
2023-03-16T05:10:01.641Z,3.50
2023-03-16T05:12:28.519Z,3.50
2023-03-16T05:14:55.566Z,3.50
2023-03-16T05:17:22.440Z,3.60
2023-03-16T05:19:49.344Z,3.50
2023-03-16T05:22:16.537Z,3.60
2023-03-16T05:24:43.448Z,3.50
2023-03-16T05:27:10.284Z,3.60
2023-03-16T05:29:37.335Z,3.60
2023-03-16T05:32:04.553Z,3.70
2023-03-16T05:34:31.680Z,3.70
2023-03-16T05:36:58.683Z,3.70
2023-03-16T05:39:27.021Z,3.70
2023-03-16T05:41:55.200Z,3.70
2023-03-16T05:44:22.183Z,3.70
2023-03-16T05:46:49.092Z,3.70
2023-03-16T05:49:16.148Z,3.70
2023-03-16T05:51:43.543Z,3.70
2023-03-16T05:54:10.485Z,3.70
2023-03-16T05:56:37.427Z,3.80
2023-03-16T05:59:04.506Z,3.90
2023-03-16T06:01:31.419Z,4.00
2023-03-16T06:03:58.396Z,4.00
2023-03-16T06:06:25.475Z,3.90
2023-03-16T06:08:52.580Z,4.00
2023-03-16T06:11:19.443Z,3.90
2023-03-16T06:13:46.391Z,3.90
2023-03-16T06:16:14.470Z,4.00
2023-03-16T06:18:41.726Z,4.00
2023-03-16T06:21:08.803Z,4.00
2023-03-16T06:23:35.758Z,4.10
2023-03-16T06:26:02.725Z,4.00
2023-03-16T06:28:29.705Z,4.10
2023-03-16T06:31:00.218Z,4.10
2023-03-16T06:33:27.603Z,4.10
2023-03-16T06:35:54.747Z,4.20
2023-03-16T06:38:21.678Z,4.20
2023-03-16T06:40:55.299Z,4.30
2023-03-16T06:43:22.138Z,4.30
2023-03-16T06:45:49.066Z,4.40
2023-03-16T06:48:15.959Z,4.40
2023-03-16T06:50:44.804Z,4.50
2023-03-16T06:53:11.661Z,4.50
2023-03-16T06:55:38.567Z,4.60
2023-03-16T06:58:05.461Z,4.70
2023-03-16T07:00:34.273Z,4.80
2023-03-16T07:03:02.071Z,4.90
2023-03-16T07:05:29.380Z,5.00
2023-03-16T07:07:56.369Z,5.10
2023-03-16T07:10:24.653Z,5.20
2023-03-16T07:12:51.890Z,5.30
2023-03-16T07:15:19.583Z,5.40
2023-03-16T07:17:46.438Z,5.50
2023-03-16T07:20:13.775Z,5.60
2023-03-16T07:22:41.880Z,5.60
2023-03-16T07:25:11.430Z,5.70
2023-03-16T07:27:38.986Z,5.90
2023-03-16T07:30:06.909Z,6.10
2023-03-16T07:32:34.220Z,6.30
2023-03-16T07:35:02.314Z,6.40
2023-03-16T07:37:29.225Z,6.50
2023-03-16T07:39:56.318Z,6.50
2023-03-16T07:42:23.217Z,6.40
2023-03-16T07:44:51.875Z,6.40
2023-03-16T07:47:19.082Z,6.40
2023-03-16T07:49:46.015Z,6.40
2023-03-16T07:52:15.718Z,6.50
2023-03-16T07:54:43.328Z,6.50
2023-03-16T07:57:10.437Z,6.50
2023-03-16T07:59:38.563Z,6.60
2023-03-16T08:02:05.504Z,6.80
2023-03-16T08:04:32.572Z,6.90
2023-03-16T08:07:02.277Z,7.00
2023-03-16T08:09:29.278Z,7.10
2023-03-16T08:11:56.188Z,7.10
2023-03-16T08:14:23.831Z,7.00
2023-03-16T08:16:50.771Z,6.90
2023-03-16T08:19:17.982Z,6.90
2023-03-16T08:22:00.439Z,7.10
2023-03-16T08:24:29.645Z,7.20
2023-03-16T08:26:57.599Z,7.20
2023-03-16T08:29:26.020Z,7.30
2023-03-16T08:31:57.765Z,7.40
2023-03-16T08:34:27.133Z,7.60
2023-03-16T08:36:54.173Z,7.80
2023-03-16T08:39:21.781Z,8.00
2023-03-16T08:41:48.972Z,8.00
2023-03-16T08:44:15.879Z,8.00
2023-03-16T08:46:42.877Z,8.00
2023-03-16T08:49:09.836Z,8.00
2023-03-16T08:51:37.183Z,7.90
2023-03-16T08:54:04.232Z,8.10
2023-03-16T08:56:31.179Z,8.10
2023-03-16T08:58:59.519Z,8.30
2023-03-16T09:01:26.735Z,8.50
2023-03-16T09:03:55.075Z,8.50
2023-03-16T09:06:22.549Z,8.40
2023-03-16T09:08:49.440Z,8.30
2023-03-16T09:11:18.940Z,8.30
2023-03-16T09:13:46.451Z,8.20
2023-03-16T09:16:15.924Z,8.20
2023-03-16T09:18:43.425Z,8.20
2023-03-16T09:21:13.977Z,8.40
2023-03-16T09:23:42.826Z,8.40
2023-03-16T09:26:10.611Z,8.50
2023-03-16T09:28:39.015Z,8.40
2023-03-16T09:31:08.719Z,8.50
2023-03-16T09:33:36.330Z,8.70
2023-03-16T09:36:03.909Z,8.60
2023-03-16T09:38:32.312Z,8.60
2023-03-16T09:41:07.864Z,8.50
2023-03-16T09:44:31.561Z,8.50
2023-03-16T09:47:01.596Z,8.60
2023-03-16T09:49:46.253Z,8.60
2023-03-16T09:52:30.437Z,8.50
2023-03-16T09:55:05.098Z,8.40
2023-03-16T09:57:36.133Z,8.40
2023-03-16T10:00:23.522Z,8.30
2023-03-16T10:03:27.207Z,8.40
2023-03-16T10:06:03.895Z,8.60
2023-03-16T10:08:39.530Z,8.80
2023-03-16T10:11:35.544Z,8.70
2023-03-16T10:14:28.949Z,8.60
2023-03-16T10:17:14.564Z,8.60
2023-03-16T10:19:54.061Z,8.60
2023-03-16T10:22:26.939Z,8.70
2023-03-16T10:25:01.844Z,8.70
2023-03-16T10:27:39.213Z,8.70
2023-03-16T10:30:28.923Z,8.80
2023-03-16T10:33:05.656Z,8.90
2023-03-16T10:35:55.041Z,9.10
2023-03-16T10:38:57.835Z,9.20
2023-03-16T10:41:29.428Z,9.20
2023-03-16T10:44:16.983Z,9.30
2023-03-16T10:46:49.333Z,9.40
2023-03-16T10:49:42.343Z,9.40
2023-03-16T10:52:34.440Z,9.40
2023-03-16T10:55:24.249Z,9.30
2023-03-16T11:01:26.985Z,9.10
2023-03-16T11:03:57.175Z,9.20
2023-03-16T11:06:33.057Z,9.10
2023-03-16T11:09:09.185Z,9.00
2023-03-16T11:11:37.007Z,9.30
2023-03-16T11:14:11.100Z,9.40
2023-03-16T11:17:04.250Z,9.60
2023-03-16T11:19:34.745Z,9.90
2023-03-16T11:22:13.318Z,10.00
2023-03-16T11:24:50.407Z,10.20
2023-03-16T11:27:40.623Z,10.00
2023-03-16T11:30:20.218Z,10.00
2023-03-16T11:32:56.852Z,10.30
2023-03-16T11:36:04.579Z,10.50
2023-03-16T11:38:58.481Z,10.50
2023-03-16T11:42:07.908Z,10.70
2023-03-16T11:45:21.348Z,10.60
2023-03-16T11:48:22.810Z,10.30
2023-03-16T11:51:06.380Z,10.00
2023-03-16T11:54:02.322Z,9.80
2023-03-16T11:56:43.201Z,9.70
2023-03-16T12:05:59.857Z,9.20
2023-03-16T12:08:58.496Z,9.00
2023-03-16T12:11:32.469Z,9.10
2023-03-16T12:14:21.263Z,9.20
2023-03-16T12:17:13.692Z,9.20
2023-03-16T12:19:55.582Z,9.30
2023-03-16T12:25:25.324Z,9.30
2023-03-16T12:27:57.217Z,9.20
2023-03-16T12:30:28.875Z,9.30
2023-03-16T12:33:23.939Z,9.50
2023-03-16T12:36:36.982Z,9.70
2023-03-16T12:39:33.182Z,9.90
2023-03-16T12:42:41.758Z,9.90
2023-03-16T12:45:46.310Z,9.90
2023-03-16T12:48:34.141Z,9.80
2023-03-16T12:51:03.355Z,9.80
2023-03-16T12:53:43.957Z,9.90
2023-03-16T12:56:17.824Z,10.30
2023-03-16T12:58:57.491Z,10.30
2023-03-16T13:01:37.933Z,10.20
2023-03-16T13:04:32.612Z,10.30
2023-03-16T13:07:22.789Z,10.30
2023-03-16T13:10:04.689Z,10.20
2023-03-16T13:12:37.097Z,10.20
2023-03-16T13:15:29.240Z,10.30
2023-03-16T13:18:25.540Z,10.30
2023-03-16T13:21:02.498Z,10.20
2023-03-16T13:23:52.208Z,10.10
2023-03-16T13:26:35.507Z,10.00
2023-03-16T13:29:27.262Z,10.10
2023-03-16T13:32:09.167Z,10.20
2023-03-16T13:34:47.037Z,10.20
2023-03-16T13:37:16.767Z,10.20
2023-03-16T13:39:59.796Z,10.30
2023-03-16T13:42:32.577Z,10.40
2023-03-16T13:45:08.286Z,10.60
2023-03-16T13:47:35.166Z,10.60
2023-03-16T13:50:02.094Z,10.50
2023-03-16T13:52:34.515Z,10.50
2023-03-16T13:55:16.750Z,10.60
2023-03-16T13:57:45.587Z,10.50
2023-03-16T14:00:18.381Z,10.50
2023-03-16T14:02:47.386Z,10.60
2023-03-16T14:05:30.662Z,10.70
2023-03-16T14:08:00.678Z,10.90
2023-03-16T14:10:34.846Z,10.80
2023-03-16T14:13:10.344Z,10.80
2023-03-16T14:15:38.825Z,10.70
2023-03-16T14:18:21.478Z,10.70
2023-03-16T14:20:55.540Z,10.80
2023-03-16T14:23:31.276Z,10.90
2023-03-16T14:25:58.290Z,10.70
2023-03-16T14:28:32.461Z,10.60
2023-03-16T14:31:10.246Z,10.60
2023-03-16T14:33:42.901Z,10.50
2023-03-16T14:36:14.242Z,10.60
2023-03-16T14:38:43.219Z,10.60
2023-03-16T14:41:24.397Z,10.40
2023-03-16T14:43:54.667Z,10.50
2023-03-16T14:46:41.251Z,10.50
2023-03-16T14:49:21.195Z,10.50
2023-03-16T14:51:50.919Z,10.60
2023-03-16T14:54:22.413Z,10.60
2023-03-16T14:56:52.951Z,10.80
2023-03-16T14:59:20.488Z,10.90
2023-03-16T15:01:49.960Z,10.90
2023-03-16T15:04:20.773Z,10.90
2023-03-16T15:06:47.624Z,11.10
2023-03-16T15:09:39.402Z,11.00
2023-03-16T15:12:20.472Z,10.90
2023-03-16T15:15:07.045Z,10.90
2023-03-16T15:17:33.992Z,10.90
2023-03-16T15:20:01.357Z,10.90
2023-03-16T15:22:35.998Z,10.90
2023-03-16T15:25:20.318Z,10.90
2023-03-16T15:27:48.073Z,10.80
2023-03-16T15:30:22.069Z,10.80
2023-03-16T15:32:49.531Z,10.80
2023-03-16T15:35:17.682Z,10.90
2023-03-16T15:37:44.912Z,11.00
2023-03-16T15:40:21.560Z,11.00
2023-03-16T15:42:48.634Z,11.00
2023-03-16T15:45:18.874Z,11.00
2023-03-16T15:47:45.841Z,11.00
2023-03-16T15:50:15.697Z,11.00
2023-03-16T15:52:51.407Z,10.90
2023-03-16T15:55:22.612Z,10.90
2023-03-16T15:57:57.312Z,10.90
2023-03-16T16:00:35.088Z,10.90
2023-03-16T16:03:03.255Z,10.90
2023-03-16T16:05:31.014Z,10.90
2023-03-16T16:07:59.005Z,10.90
2023-03-16T16:10:27.085Z,10.90
2023-03-16T16:12:55.909Z,10.80
2023-03-16T16:15:31.169Z,10.80
2023-03-16T16:18:19.747Z,10.80
2023-03-16T16:20:45.426Z,10.80
2023-03-16T16:23:12.765Z,10.80
2023-03-16T16:25:41.586Z,10.70
2023-03-16T16:28:21.307Z,10.70
2023-03-16T16:30:49.011Z,10.70
2023-03-16T16:33:28.021Z,10.70
2023-03-16T16:35:57.206Z,10.60
2023-03-16T16:38:24.783Z,10.60
2023-03-16T16:40:53.481Z,10.60
2023-03-16T16:43:49.470Z,10.50
2023-03-16T16:46:19.314Z,10.50
2023-03-16T16:48:48.567Z,10.50
2023-03-16T16:51:24.850Z,10.50
2023-03-16T16:53:56.439Z,10.50
2023-03-16T16:56:31.888Z,10.50
2023-03-16T16:59:01.687Z,10.50
2023-03-16T17:01:33.135Z,10.50
2023-03-16T17:04:00.531Z,10.40
2023-03-16T17:06:28.083Z,10.40
2023-03-16T17:08:55.515Z,10.40
2023-03-16T17:11:37.322Z,10.30
2023-03-16T17:14:06.407Z,10.30
2023-03-16T17:16:38.143Z,10.20
2023-03-16T17:19:07.154Z,10.10
2023-03-16T17:21:34.686Z,10.10
2023-03-16T17:24:02.726Z,10.00
2023-03-16T17:26:33.017Z,9.90
2023-03-16T17:29:13.691Z,9.90
2023-03-16T17:31:42.539Z,9.90
2023-03-16T17:34:24.470Z,9.80
2023-03-16T17:36:52.518Z,9.80
2023-03-16T17:39:22.645Z,9.70
2023-03-16T17:41:56.947Z,9.70
2023-03-16T17:44:25.602Z,9.70
2023-03-16T17:46:53.122Z,9.60
2023-03-16T17:49:20.710Z,9.60
2023-03-16T17:51:47.993Z,9.50
2023-03-16T17:54:14.950Z,9.50
2023-03-16T17:56:42.115Z,9.50
2023-03-16T17:59:18.192Z,9.40
2023-03-16T18:01:46.535Z,9.40
2023-03-16T18:04:18.477Z,9.40
2023-03-16T18:06:47.513Z,9.40
2023-03-16T18:09:15.900Z,9.40
2023-03-16T18:11:47.611Z,9.40
2023-03-16T18:14:37.150Z,9.30
2023-03-16T18:17:24.144Z,9.30
2023-03-16T18:19:51.131Z,9.20
2023-03-16T18:22:19.901Z,9.10
2023-03-16T18:24:48.707Z,9.10
2023-03-16T18:27:16.228Z,9.10
2023-03-16T18:29:44.559Z,9.00
2023-03-16T18:32:29.217Z,9.00
2023-03-16T18:34:58.195Z,8.90
2023-03-16T18:37:30.398Z,8.80
2023-03-16T18:39:57.418Z,8.80
2023-03-16T18:42:27.685Z,8.80
2023-03-16T18:44:54.644Z,8.70
2023-03-16T18:47:31.573Z,8.70
2023-03-16T18:49:59.531Z,8.60
2023-03-16T18:52:31.076Z,8.60
2023-03-16T18:54:58.461Z,8.60
2023-03-16T18:57:28.146Z,8.50
2023-03-16T18:59:55.474Z,8.50
2023-03-16T19:02:29.401Z,8.50
2023-03-16T19:04:58.323Z,8.40
2023-03-16T19:07:37.417Z,8.40
2023-03-16T19:10:22.178Z,8.40
2023-03-16T19:12:49.962Z,8.30
2023-03-16T19:15:32.590Z,8.30
2023-03-16T19:18:00.141Z,8.40
2023-03-16T19:20:30.504Z,8.40
2023-03-16T19:23:06.998Z,8.30
2023-03-16T19:25:39.840Z,8.30
2023-03-16T19:28:12.312Z,8.30
2023-03-16T19:30:39.634Z,8.40
2023-03-16T19:33:22.260Z,8.30
2023-03-16T19:35:52.172Z,8.20
2023-03-16T19:38:20.962Z,8.20
2023-03-16T19:40:52.472Z,8.10
2023-03-16T19:43:21.259Z,8.10
2023-03-16T19:45:49.511Z,8.10
2023-03-16T19:48:31.260Z,8.10
2023-03-16T19:50:58.254Z,8.00
2023-03-16T19:53:26.373Z,8.10
2023-03-16T19:55:53.952Z,8.10
2023-03-16T19:58:38.628Z,8.10
2023-03-16T20:01:10.720Z,8.10
2023-03-16T20:03:38.661Z,8.10
2023-03-16T20:06:05.943Z,8.10
2023-03-16T20:08:32.945Z,8.00
2023-03-16T20:11:06.605Z,7.90
2023-03-16T20:13:35.471Z,7.90
2023-03-16T20:16:03.600Z,8.00
2023-03-16T20:18:30.706Z,7.90
2023-03-16T20:20:58.029Z,7.90
2023-03-16T20:23:28.310Z,7.90
2023-03-16T20:26:01.397Z,8.00
2023-03-16T20:28:36.289Z,7.90
2023-03-16T20:31:09.400Z,7.90
2023-03-16T20:33:37.050Z,7.80
2023-03-16T20:36:04.660Z,7.90
2023-03-16T20:38:31.700Z,7.90
2023-03-16T20:40:58.929Z,8.00
2023-03-16T20:43:31.678Z,8.00
2023-03-16T20:46:03.968Z,8.00
2023-03-16T20:48:31.248Z,8.00
2023-03-16T20:51:00.128Z,8.00
2023-03-16T20:53:27.698Z,8.10
2023-03-16T20:55:56.483Z,8.10
2023-03-16T20:58:26.122Z,8.20
2023-03-16T21:00:58.414Z,8.20
2023-03-16T21:03:28.432Z,8.30
2023-03-16T21:05:59.632Z,8.20
2023-03-16T21:08:27.622Z,8.10
2023-03-16T21:10:56.859Z,8.10
2023-03-16T21:13:31.443Z,8.10
2023-03-16T21:16:00.480Z,8.00
2023-03-16T21:18:28.057Z,8.10
2023-03-16T21:20:56.311Z,8.00
2023-03-16T21:23:24.021Z,7.90
2023-03-16T21:26:01.609Z,7.80
2023-03-16T21:28:31.671Z,7.80
2023-03-16T21:30:59.365Z,7.80
2023-03-16T21:33:40.586Z,7.90
2023-03-16T21:36:22.406Z,7.90
2023-03-16T21:38:50.966Z,7.90
2023-03-16T21:41:17.848Z,7.80
2023-03-16T21:43:45.399Z,7.90
2023-03-16T21:46:25.616Z,7.90
2023-03-16T21:48:56.061Z,7.80
2023-03-16T21:51:28.639Z,7.70
2023-03-16T21:53:55.854Z,7.80
2023-03-16T21:56:26.010Z,7.70
2023-03-16T21:58:54.047Z,7.70
2023-03-16T22:01:23.285Z,7.70
2023-03-16T22:03:53.351Z,7.80
2023-03-16T22:06:22.560Z,7.70
2023-03-16T22:08:51.295Z,7.70
2023-03-16T22:11:20.678Z,7.70
2023-03-16T22:13:48.216Z,7.70
2023-03-16T22:16:20.981Z,7.60
2023-03-16T22:18:50.094Z,7.60
2023-03-16T22:21:43.784Z,7.60
2023-03-16T22:24:31.591Z,7.60
2023-03-16T22:26:59.508Z,7.70
2023-03-16T22:29:31.778Z,7.70
2023-03-16T22:32:07.089Z,7.80
2023-03-16T22:34:43.980Z,7.80
2023-03-16T22:37:14.677Z,7.70
2023-03-16T22:39:41.575Z,7.70
2023-03-16T22:42:30.480Z,7.80
2023-03-16T22:44:57.621Z,7.80
2023-03-16T22:47:27.437Z,7.70
2023-03-16T22:49:54.679Z,7.60
2023-03-16T22:52:28.213Z,7.60
2023-03-16T22:54:56.050Z,7.50
2023-03-16T22:57:23.144Z,7.40
2023-03-16T22:59:51.897Z,7.30
2023-03-16T23:02:22.268Z,7.30
2023-03-16T23:04:49.311Z,7.20
2023-03-16T23:07:16.792Z,7.20
2023-03-16T23:09:43.764Z,7.20
2023-03-16T23:12:15.737Z,7.20
2023-03-16T23:14:43.430Z,7.30
2023-03-16T23:17:20.229Z,7.40
2023-03-16T23:19:48.288Z,7.50
2023-03-16T23:22:15.804Z,7.50
2023-03-16T23:24:43.284Z,7.60
2023-03-16T23:27:28.348Z,7.60
2023-03-16T23:29:55.363Z,7.70
2023-03-16T23:32:22.848Z,7.80
2023-03-16T23:34:49.716Z,7.80
2023-03-16T23:37:16.556Z,8.00
2023-03-16T23:39:43.692Z,8.00
2023-03-16T23:42:11.021Z,8.00
2023-03-16T23:44:37.949Z,7.80
2023-03-16T23:47:05.063Z,7.70
2023-03-16T23:49:36.792Z,7.60
2023-03-16T23:52:04.648Z,7.40
2023-03-16T23:54:32.772Z,7.30
2023-03-16T23:56:59.739Z,7.20
2023-03-16T23:59:27.477Z,7.20
